createdAt,value
2022-08-22T00:01:18.430Z,1.65
2022-08-22T00:02:41.538Z,0.90
2022-08-22T00:02:45.270Z,1.30
2022-08-22T00:02:53.140Z,0.90
2022-08-22T00:03:07.260Z,2.65
2022-08-22T00:04:04.261Z,1.75
2022-08-22T00:06:50.054Z,2.22
2022-08-22T00:09:43.998Z,2.10
2022-08-22T00:12:30.021Z,1.30
2022-08-22T00:15:01.262Z,1.67
2022-08-22T00:17:29.165Z,2.23
2022-08-22T00:20:28.478Z,2.45
2022-08-22T00:23:26.444Z,1.83
2022-08-22T00:25:59.011Z,1.20
2022-08-22T00:28:35.465Z,1.58
2022-08-22T00:31:36.858Z,1.15
2022-08-22T00:34:18.465Z,1.60
2022-08-22T00:37:19.090Z,2.95
2022-08-22T00:39:53.936Z,1.50
2022-08-22T00:42:42.727Z,1.60
2022-08-22T00:45:32.737Z,1.75
2022-08-22T00:48:18.729Z,1.40
2022-08-22T00:51:14.339Z,1.90
2022-08-22T00:53:44.523Z,1.42
2022-08-22T00:56:30.700Z,1.00
2022-08-22T00:59:23.047Z,1.20
2022-08-22T01:02:15.098Z,1.88
2022-08-22T01:04:53.251Z,1.20
2022-08-22T01:07:49.027Z,1.58
2022-08-22T01:10:33.361Z,1.77
2022-08-22T01:13:34.617Z,1.70
2022-08-22T01:16:20.910Z,1.58
2022-08-22T01:19:21.663Z,2.72
2022-08-22T01:22:04.256Z,1.33
2022-08-22T01:25:07.435Z,2.13
2022-08-22T01:28:13.348Z,2.22
2022-08-22T01:30:59.369Z,2.60
2022-08-22T01:33:38.917Z,1.30
2022-08-22T01:36:30.588Z,1.17
2022-08-22T01:39:07.213Z,1.13
2022-08-22T01:41:53.796Z,1.85
2022-08-22T01:44:44.194Z,1.80
2022-08-22T01:47:19.109Z,1.50
2022-08-22T01:49:55.118Z,1.33
2022-08-22T01:52:46.552Z,1.55
2022-08-22T01:55:25.503Z,1.33
2022-08-22T01:57:58.954Z,2.75
2022-08-22T02:00:34.766Z,1.52
2022-08-22T02:03:20.394Z,2.13
2022-08-22T02:05:54.637Z,1.88
2022-08-22T02:08:44.901Z,1.35
2022-08-22T02:11:45.701Z,1.40
2022-08-22T02:15:05.386Z,2.80
2022-08-22T02:17:35.659Z,1.67
2022-08-22T02:20:11.430Z,1.30
2022-08-22T02:22:56.933Z,1.20
2022-08-22T02:25:29.472Z,1.23
2022-08-22T02:28:09.482Z,2.00
2022-08-22T02:31:04.734Z,1.52
2022-08-22T02:33:49.155Z,1.50
2022-08-22T02:36:43.347Z,1.40
2022-08-22T02:39:45.293Z,1.48
2022-08-22T02:42:28.047Z,1.63
2022-08-22T02:45:01.284Z,1.55
2022-08-22T02:47:58.072Z,1.67
2022-08-22T02:50:42.196Z,1.80
2022-08-22T02:53:18.284Z,1.58
2022-08-22T02:56:00.126Z,3.72
2022-08-22T02:58:38.353Z,2.05
2022-08-22T03:01:18.720Z,1.70
2022-08-22T03:03:48.456Z,1.30
2022-08-22T03:06:18.670Z,1.80
2022-08-22T03:09:17.549Z,1.52
2022-08-22T03:11:54.041Z,1.65
2022-08-22T03:14:33.334Z,1.70
2022-08-22T03:17:22.934Z,1.40
2022-08-22T03:20:03.165Z,1.70
2022-08-22T03:22:39.521Z,2.10
2022-08-22T03:25:20.261Z,1.85
2022-08-22T03:28:03.610Z,1.60
2022-08-22T03:30:44.511Z,2.00
2022-08-22T03:33:17.710Z,2.75
2022-08-22T03:35:45.149Z,1.70
2022-08-22T03:38:20.344Z,2.35
2022-08-22T03:41:14.369Z,1.88
2022-08-22T03:44:11.882Z,2.38
2022-08-22T03:46:55.272Z,1.58
2022-08-22T03:49:54.082Z,1.90
2022-08-22T03:52:32.589Z,1.52
2022-08-22T03:55:27.529Z,2.03
2022-08-22T03:58:32.558Z,1.45
2022-08-22T04:01:37.469Z,1.17
2022-08-22T04:04:42.113Z,1.85
2022-08-22T04:07:32.283Z,1.55
2022-08-22T04:10:39.951Z,2.55
2022-08-22T04:13:26.105Z,1.40
2022-08-22T04:16:26.589Z,1.88
2022-08-22T04:19:39.342Z,1.75
2022-08-22T04:22:35.169Z,1.50
2022-08-22T04:25:26.700Z,1.60
2022-08-22T04:28:04.131Z,2.53
2022-08-22T04:30:41.947Z,2.42
2022-08-22T04:33:38.029Z,1.98
2022-08-22T04:36:37.695Z,1.92
2022-08-22T04:39:18.439Z,1.80
2022-08-22T04:41:52.798Z,2.03
2022-08-22T04:44:30.862Z,1.95
2022-08-22T04:47:28.562Z,2.22
2022-08-22T04:50:04.865Z,1.65
2022-08-22T04:52:59.941Z,1.95
2022-08-22T04:56:16.182Z,2.53
2022-08-22T04:59:03.076Z,3.28
2022-08-22T05:01:55.280Z,1.83
2022-08-22T05:04:28.464Z,1.63
2022-08-22T05:07:07.780Z,1.75
2022-08-22T05:09:40.038Z,2.33
2022-08-22T05:12:14.615Z,1.90
2022-08-22T05:15:01.310Z,2.35
2022-08-22T05:17:31.943Z,2.03
2022-08-22T05:20:07.900Z,2.70
2022-08-22T05:22:41.382Z,2.60
2022-08-22T05:25:18.986Z,2.05
2022-08-22T05:27:56.471Z,2.20
2022-08-22T05:30:28.921Z,2.50
2022-08-22T05:33:09.486Z,3.33
2022-08-22T05:35:54.574Z,2.25
2022-08-22T05:38:30.991Z,1.90
2022-08-22T05:41:10.078Z,1.67
2022-08-22T05:43:44.265Z,2.90
2022-08-22T05:46:26.923Z,3.25
2022-08-22T05:49:00.697Z,2.13
2022-08-22T05:51:40.546Z,1.70
2022-08-22T05:54:20.002Z,1.80
2022-08-22T05:57:25.260Z,2.53
2022-08-22T06:00:02.525Z,2.22
2022-08-22T06:02:48.928Z,2.33
2022-08-22T06:05:25.724Z,2.50
2022-08-22T06:08:01.279Z,3.15
2022-08-22T06:10:38.377Z,2.65
2022-08-22T06:13:14.775Z,2.55
2022-08-22T06:15:55.975Z,1.95
2022-08-22T06:18:27.156Z,3.50
2022-08-22T06:20:59.035Z,2.97
2022-08-22T06:23:37.401Z,2.90
2022-08-22T06:26:06.562Z,3.17
2022-08-22T06:28:54.765Z,2.92
2022-08-22T06:31:33.609Z,2.15
2022-08-22T06:34:11.217Z,2.30
2022-08-22T06:36:42.247Z,2.88
2022-08-22T06:39:27.482Z,2.45
2022-08-22T06:42:22.694Z,2.63
2022-08-22T06:45:05.649Z,2.67
2022-08-22T06:48:02.263Z,2.00
2022-08-22T06:50:34.524Z,2.60
2022-08-22T06:53:21.078Z,2.53
2022-08-22T06:55:52.557Z,2.67
2022-08-22T06:58:32.825Z,2.25
2022-08-22T07:01:11.755Z,2.65
2022-08-22T07:03:47.598Z,2.58
2022-08-22T07:06:43.922Z,2.53
2022-08-22T07:09:33.359Z,2.78
2022-08-22T07:12:04.193Z,2.88
2022-08-22T07:14:43.918Z,2.90
2022-08-22T07:17:19.630Z,2.60
2022-08-22T07:19:59.731Z,2.40
2022-08-22T07:22:31.993Z,3.03
2022-08-22T07:25:08.872Z,3.50
2022-08-22T07:27:55.305Z,2.65
2022-08-22T07:30:28.059Z,2.10
2022-08-22T07:33:23.643Z,2.58
2022-08-22T07:36:00.651Z,2.33
2022-08-22T07:38:44.052Z,2.75
2022-08-22T07:41:31.225Z,2.95
2022-08-22T07:44:20.171Z,2.60
2022-08-22T07:47:00.611Z,3.78
2022-08-22T07:49:34.877Z,2.20
2022-08-22T07:52:12.291Z,3.13
2022-08-22T07:54:57.865Z,2.78
2022-08-22T07:57:38.180Z,2.30
2022-08-22T08:00:17.712Z,2.55
2022-08-22T08:02:53.053Z,3.00
2022-08-22T08:05:24.947Z,2.65
2022-08-22T08:07:56.705Z,3.35
2022-08-22T08:10:30.045Z,2.38
2022-08-22T08:13:03.396Z,2.65
2022-08-22T08:15:35.278Z,1.63
2022-08-22T08:18:06.991Z,2.03
2022-08-22T08:20:37.159Z,2.20
2022-08-22T08:23:12.762Z,2.25
2022-08-22T08:26:03.477Z,2.58
2022-08-22T08:28:37.561Z,2.13
2022-08-22T08:31:10.841Z,1.60
2022-08-22T08:33:42.484Z,1.75
2022-08-22T08:36:33.430Z,1.63
2022-08-22T08:39:17.223Z,2.00
2022-08-22T08:42:10.995Z,2.03
2022-08-22T08:44:53.849Z,1.95
2022-08-22T08:47:42.769Z,1.98
2022-08-22T08:50:45.554Z,2.75
2022-08-22T08:53:20.125Z,1.83
2022-08-22T08:55:55.221Z,1.20
2022-08-22T08:59:04.031Z,1.50
2022-08-22T09:02:06.864Z,1.48
2022-08-22T09:04:43.270Z,1.20
2022-08-22T09:07:30.548Z,2.33
2022-08-22T09:10:32.642Z,1.17
2022-08-22T09:13:11.661Z,1.20
2022-08-22T09:16:16.759Z,1.40
2022-08-22T09:19:10.394Z,1.58
2022-08-22T09:22:06.250Z,1.30
2022-08-22T09:24:42.160Z,1.10
2022-08-22T09:27:37.046Z,1.77
2022-08-22T09:30:11.605Z,1.30
2022-08-22T09:32:55.773Z,1.10
2022-08-22T09:36:05.271Z,1.23
2022-08-22T09:39:10.551Z,1.20
2022-08-22T09:42:08.167Z,2.13
2022-08-22T09:44:57.441Z,1.70
2022-08-22T09:47:42.817Z,1.33
2022-08-22T09:50:17.677Z,1.65
2022-08-22T09:53:23.242Z,1.38
2022-08-22T09:56:35.551Z,1.17
2022-08-22T10:01:51.401Z,1.30
2022-08-22T10:04:37.483Z,1.10
2022-08-22T10:07:11.697Z,1.88
2022-08-22T10:10:21.645Z,0.93
2022-08-22T10:13:10.408Z,1.58
2022-08-22T10:16:06.735Z,1.40
2022-08-22T10:18:44.051Z,1.40
2022-08-22T10:21:47.708Z,1.13
2022-08-22T10:24:25.488Z,1.35
2022-08-22T10:27:08.217Z,1.38
2022-08-22T10:29:39.843Z,1.20
2022-08-22T10:35:44.675Z,1.35
2022-08-22T10:38:49.306Z,2.30
2022-08-22T10:41:30.123Z,1.73
2022-08-22T10:44:18.978Z,2.00
2022-08-22T10:47:05.475Z,2.00
2022-08-22T10:49:33.141Z,1.80
2022-08-22T10:52:15.810Z,3.08
2022-08-22T10:54:49.396Z,1.40
2022-08-22T10:57:38.203Z,1.65
2022-08-22T11:00:30.172Z,1.50
2022-08-22T11:03:23.478Z,2.70
2022-08-22T11:05:58.206Z,1.35
2022-08-22T11:08:37.929Z,1.50
2022-08-22T11:11:15.958Z,1.55
2022-08-22T11:14:29.637Z,1.48
2022-08-22T11:16:57.210Z,1.77
2022-08-22T11:19:51.028Z,1.65
2022-08-22T11:22:42.919Z,1.98
2022-08-22T11:25:53.977Z,2.58
2022-08-22T11:28:44.700Z,1.92
2022-08-22T11:31:31.660Z,1.50
2022-08-22T11:34:35.677Z,1.10
2022-08-22T11:37:42.582Z,1.42
2022-08-22T11:40:14.497Z,1.05
2022-08-22T11:42:49.335Z,0.90
2022-08-22T11:45:29.099Z,1.10
2022-08-22T11:48:28.922Z,0.85
2022-08-22T11:51:13.859Z,0.80
2022-08-22T11:54:10.799Z,1.00
2022-08-22T11:56:48.782Z,0.65
2022-08-22T11:59:27.627Z,0.88
2022-08-22T12:02:03.926Z,1.35
2022-08-22T12:04:59.717Z,0.80
2022-08-22T12:07:31.166Z,0.98
2022-08-22T12:10:13.932Z,1.33
2022-08-22T12:13:01.265Z,1.25
2022-08-22T12:15:34.839Z,1.25
2022-08-22T12:18:41.678Z,1.08
2022-08-22T12:21:12.113Z,1.00
2022-08-22T12:23:48.680Z,1.05
2022-08-22T12:26:35.424Z,1.10
2022-08-22T12:29:15.629Z,1.30
2022-08-22T12:32:02.649Z,1.00
2022-08-22T12:34:58.065Z,1.02
2022-08-22T12:37:30.215Z,1.02
2022-08-22T12:40:09.773Z,1.25
2022-08-22T12:42:50.178Z,1.60
2022-08-22T12:45:41.869Z,1.10
2022-08-22T12:48:40.802Z,1.00
2022-08-22T12:51:38.095Z,2.35
2022-08-22T12:54:43.889Z,2.45
2022-08-22T12:57:54.454Z,1.55
2022-08-22T13:00:31.463Z,1.20
2022-08-22T13:03:10.420Z,0.82
2022-08-22T13:05:40.543Z,1.20
2022-08-22T13:08:17.550Z,1.67
2022-08-22T13:11:02.522Z,2.10
2022-08-22T13:13:36.962Z,0.90
2022-08-22T13:16:12.302Z,1.13
2022-08-22T13:18:53.380Z,0.82
2022-08-22T13:21:31.487Z,0.90
2022-08-22T13:24:16.899Z,1.20
2022-08-22T13:26:55.456Z,1.58
2022-08-22T13:29:39.426Z,1.17
2022-08-22T13:32:20.481Z,1.42
2022-08-22T13:34:57.056Z,1.10
2022-08-22T13:37:46.290Z,1.00
2022-08-22T13:40:31.810Z,0.90
2022-08-22T13:43:15.158Z,1.42
2022-08-22T13:45:52.493Z,1.33
2022-08-22T13:48:23.992Z,1.10
2022-08-22T13:51:08.161Z,1.10
2022-08-22T13:54:00.446Z,1.35
2022-08-22T13:56:50.771Z,1.10
2022-08-22T13:59:53.127Z,1.33
2022-08-22T14:02:34.121Z,0.95
2022-08-22T14:05:07.486Z,0.93
2022-08-22T14:08:02.993Z,1.30
2022-08-22T14:10:36.542Z,1.10
2022-08-22T14:13:26.605Z,1.00
2022-08-22T14:16:04.599Z,0.95
2022-08-22T14:18:45.506Z,1.45
2022-08-22T14:23:52.210Z,1.17
2022-08-22T14:26:33.053Z,1.45
2022-08-22T14:29:12.726Z,1.20
2022-08-22T14:31:41.107Z,1.40
2022-08-22T14:34:15.027Z,1.13
2022-08-22T14:37:11.408Z,1.30
2022-08-22T14:39:48.519Z,0.90
2022-08-22T14:42:23.739Z,1.10
2022-08-22T14:45:16.705Z,1.05
2022-08-22T14:47:55.543Z,1.02
2022-08-22T14:50:45.818Z,1.00
2022-08-22T14:53:24.981Z,1.10
2022-08-22T14:56:02.154Z,1.10
2022-08-22T14:58:35.217Z,0.80
2022-08-22T15:01:17.846Z,1.20
2022-08-22T15:06:59.735Z,1.10
2022-08-22T15:09:37.523Z,0.82
2022-08-22T15:12:23.007Z,0.80
2022-08-22T15:14:55.142Z,1.33
2022-08-22T15:17:33.890Z,1.00
2022-08-22T15:20:27.671Z,1.10
2022-08-22T15:22:58.392Z,1.00
2022-08-22T15:25:33.380Z,0.90
2022-08-22T15:28:20.576Z,1.10
2022-08-22T15:31:03.581Z,1.20
2022-08-22T15:33:37.777Z,1.02
2022-08-22T15:36:28.614Z,0.80
2022-08-22T15:39:26.299Z,1.17
2022-08-22T15:41:55.369Z,1.30
2022-08-22T15:44:30.757Z,0.95
2022-08-22T15:47:04.350Z,0.90
2022-08-22T15:49:37.831Z,0.95
2022-08-22T15:52:17.831Z,0.98
2022-08-22T15:54:54.949Z,0.75
2022-08-22T15:57:33.125Z,1.27
2022-08-22T16:00:43.344Z,1.42
2022-08-22T16:03:27.932Z,0.65
2022-08-22T16:05:57.872Z,1.48
2022-08-22T16:08:32.943Z,0.80
2022-08-22T16:11:03.558Z,0.90
2022-08-22T16:13:31.010Z,0.90
2022-08-22T16:16:02.214Z,0.93
2022-08-22T16:18:36.979Z,2.00
2022-08-22T16:21:15.921Z,1.20
2022-08-22T16:23:53.687Z,0.98
2022-08-22T16:26:30.077Z,0.80
2022-08-22T16:29:00.440Z,0.90
2022-08-22T16:31:32.793Z,0.88
2022-08-22T16:34:18.436Z,0.95
2022-08-22T16:37:17.823Z,1.13
2022-08-22T16:39:49.971Z,1.00
2022-08-22T16:42:19.401Z,0.75
2022-08-22T16:44:51.146Z,0.90
2022-08-22T16:49:52.178Z,0.93
2022-08-22T16:52:22.487Z,1.10
2022-08-22T16:54:53.081Z,1.08
2022-08-22T16:58:10.124Z,0.77
2022-08-22T17:00:37.773Z,1.10
2022-08-22T17:03:08.399Z,1.20
2022-08-22T17:08:36.528Z,0.90
2022-08-22T17:11:30.323Z,1.27
2022-08-22T17:14:18.547Z,1.45
2022-08-22T17:17:01.025Z,0.90
2022-08-22T17:20:13.469Z,1.40
2022-08-22T17:25:33.977Z,1.05
2022-08-22T17:28:25.904Z,0.85
2022-08-22T17:31:09.565Z,0.85
2022-08-22T17:33:55.165Z,0.90
2022-08-22T17:36:43.521Z,1.20
2022-08-22T17:39:23.022Z,0.82
2022-08-22T17:41:50.692Z,1.25
2022-08-22T17:44:45.194Z,1.17
2022-08-22T17:47:18.066Z,0.80
2022-08-22T17:50:07.709Z,1.20
2022-08-22T17:52:43.862Z,0.80
2022-08-22T17:55:35.173Z,0.90
2022-08-22T17:58:13.061Z,0.90
2022-08-22T18:01:11.321Z,0.80
2022-08-22T18:05:15.079Z,1.13
2022-08-22T18:07:45.782Z,0.80
2022-08-22T18:10:38.218Z,1.45
2022-08-22T18:13:33.591Z,0.98
2022-08-22T18:16:34.366Z,0.73
2022-08-22T18:19:12.943Z,0.90
2022-08-22T18:21:43.774Z,0.80
2022-08-22T18:24:11.190Z,0.98
2022-08-22T18:26:57.784Z,0.85
2022-08-22T18:29:41.484Z,0.90
2022-08-22T18:32:19.674Z,1.45
2022-08-22T18:34:55.454Z,1.20
2022-08-22T18:37:32.999Z,1.58
2022-08-22T18:40:08.998Z,1.27
2022-08-22T18:42:58.911Z,1.83
2022-08-22T18:45:45.302Z,0.95
2022-08-22T18:48:30.168Z,1.00
2022-08-22T18:51:23.863Z,1.05
2022-08-22T18:53:55.151Z,1.40
2022-08-22T18:56:49.635Z,2.03
2022-08-22T18:59:38.705Z,1.27
2022-08-22T19:02:06.167Z,1.33
2022-08-22T19:04:58.405Z,1.05
2022-08-22T19:10:25.265Z,1.58
2022-08-22T19:13:17.217Z,1.30
2022-08-22T19:16:15.178Z,3.45
2022-08-22T19:18:42.597Z,1.10
2022-08-22T19:21:48.070Z,1.17
2022-08-22T19:24:21.421Z,1.30
2022-08-22T19:27:10.569Z,1.38
2022-08-22T19:29:37.985Z,1.50
2022-08-22T19:32:12.951Z,1.33
2022-08-22T19:34:47.130Z,1.92
2022-08-22T19:37:33.039Z,2.03
2022-08-22T19:40:12.792Z,1.60
2022-08-22T19:42:43.189Z,1.45
2022-08-22T19:45:21.966Z,1.33
2022-08-22T19:48:01.794Z,1.27
2022-08-22T19:50:34.059Z,1.40
2022-08-22T19:53:06.210Z,1.52
2022-08-22T19:55:52.879Z,1.58
2022-08-22T19:58:42.082Z,2.25
2022-08-22T20:01:45.270Z,1.95
2022-08-22T20:04:37.517Z,2.47
2022-08-22T20:07:18.363Z,1.13
2022-08-22T20:10:05.386Z,1.35
2022-08-22T20:12:45.903Z,1.40
2022-08-22T20:15:26.166Z,1.88
2022-08-22T20:20:59.878Z,1.98
2022-08-22T20:23:31.586Z,2.35
2022-08-22T20:26:00.210Z,2.47
2022-08-22T20:28:40.206Z,1.50
2022-08-22T20:31:20.019Z,1.70
2022-08-22T20:33:52.299Z,1.48
2022-08-22T20:36:28.301Z,1.55
2022-08-22T20:39:01.488Z,2.03
2022-08-22T20:41:35.457Z,2.15
2022-08-22T20:44:06.524Z,2.00
2022-08-22T20:46:55.243Z,1.90
2022-08-22T20:49:31.238Z,1.98
2022-08-22T20:52:07.254Z,1.80
2022-08-22T20:54:38.602Z,1.83
2022-08-22T20:57:15.980Z,2.80
2022-08-22T20:59:55.590Z,1.80
2022-08-22T21:02:28.399Z,2.17
2022-08-22T21:05:09.069Z,2.33
2022-08-22T21:07:40.461Z,2.05
2022-08-22T21:10:36.285Z,2.00
2022-08-22T21:13:19.561Z,2.03
2022-08-22T21:15:59.208Z,1.58
2022-08-22T21:18:29.373Z,1.92
2022-08-22T21:21:14.765Z,1.73
2022-08-22T21:23:48.639Z,2.00
2022-08-22T21:26:30.058Z,1.38
2022-08-22T21:29:07.600Z,2.47
2022-08-22T21:31:45.599Z,1.45
2022-08-22T21:34:15.958Z,1.58
2022-08-22T21:36:44.157Z,1.52
2022-08-22T21:39:20.195Z,1.60
2022-08-22T21:42:02.647Z,1.88
2022-08-22T21:44:32.831Z,2.25
2022-08-22T21:47:19.071Z,1.63
2022-08-22T21:50:31.697Z,1.73
2022-08-22T21:53:10.101Z,1.80
2022-08-22T21:55:44.292Z,1.85
2022-08-22T21:58:36.103Z,2.17
2022-08-22T22:01:27.664Z,1.45
2022-08-22T22:03:55.717Z,1.50
2022-08-22T22:06:23.237Z,2.10
2022-08-22T22:08:50.805Z,2.42
2022-08-22T22:11:18.738Z,1.30
2022-08-22T22:13:47.682Z,2.40
2022-08-22T22:16:22.149Z,2.35
2022-08-22T22:18:49.620Z,1.88
2022-08-22T22:21:17.516Z,1.60
2022-08-22T22:23:45.025Z,1.65
2022-08-22T22:26:13.021Z,2.47
2022-08-22T22:28:48.280Z,2.50
2022-08-22T22:31:18.269Z,1.90
2022-08-22T22:33:46.402Z,1.95
2022-08-22T22:36:21.303Z,2.22
2022-08-22T22:38:51.577Z,2.47
2022-08-22T22:41:20.362Z,1.67
2022-08-22T22:43:47.943Z,1.60
2022-08-22T22:46:15.446Z,1.85
2022-08-22T22:48:42.957Z,2.20
2022-08-22T22:51:13.579Z,1.60
2022-08-22T22:53:42.911Z,1.67
2022-08-22T22:56:14.552Z,1.90
2022-08-22T22:58:44.312Z,2.20
2022-08-22T23:01:32.258Z,2.00
2022-08-22T23:04:03.585Z,2.03
2022-08-22T23:06:33.922Z,2.00
2022-08-22T23:09:01.442Z,2.22
2022-08-22T23:11:31.359Z,3.35
2022-08-22T23:13:59.005Z,2.22
2022-08-22T23:16:29.457Z,3.17
2022-08-22T23:18:57.994Z,2.50
2022-08-22T23:21:29.550Z,2.55
2022-08-22T23:23:59.966Z,2.47
2022-08-22T23:26:28.725Z,2.40
2022-08-22T23:28:57.314Z,2.05
2022-08-22T23:31:27.558Z,2.05
2022-08-22T23:33:56.151Z,2.90
2022-08-22T23:36:24.815Z,2.33
2022-08-22T23:38:53.123Z,4.35
2022-08-22T23:41:21.586Z,2.78
2022-08-22T23:43:51.848Z,2.92
2022-08-22T23:46:22.047Z,2.65
2022-08-22T23:48:49.902Z,2.72
2022-08-22T23:51:22.843Z,3.08
2022-08-22T23:53:51.892Z,2.33
2022-08-22T23:56:23.646Z,3.00
2022-08-22T23:58:53.293Z,3.35
